sensor_id;sensor_type;location;lat;lon;timestamp;temperature;humidity
75738;DHT22;64356;45.638;13.764;2023-03-05T00:00:06;19.20;41.30
75738;DHT22;64356;45.638;13.764;2023-03-05T00:02:32;19.20;41.50
75738;DHT22;64356;45.638;13.764;2023-03-05T00:04:57;19.20;41.40
75738;DHT22;64356;45.638;13.764;2023-03-05T00:07:23;19.20;41.50
75738;DHT22;64356;45.638;13.764;2023-03-05T00:09:48;19.20;41.50
75738;DHT22;64356;45.638;13.764;2023-03-05T00:12:14;19.20;41.60
75738;DHT22;64356;45.638;13.764;2023-03-05T00:14:41;19.20;41.60
75738;DHT22;64356;45.638;13.764;2023-03-05T00:17:07;19.20;41.50
75738;DHT22;64356;45.638;13.764;2023-03-05T00:19:33;19.20;41.50
75738;DHT22;64356;45.638;13.764;2023-03-05T00:21:58;19.20;41.50
75738;DHT22;64356;45.638;13.764;2023-03-05T00:24:24;19.20;41.40
75738;DHT22;64356;45.638;13.764;2023-03-05T00:26:50;19.20;41.50
75738;DHT22;64356;45.638;13.764;2023-03-05T00:29:17;19.20;41.40
75738;DHT22;64356;45.638;13.764;2023-03-05T00:31:44;19.20;41.50
75738;DHT22;64356;45.638;13.764;2023-03-05T00:34:14;19.20;41.50
75738;DHT22;64356;45.638;13.764;2023-03-05T00:36:41;19.20;41.50
75738;DHT22;64356;45.638;13.764;2023-03-05T00:39:07;19.20;41.60
75738;DHT22;64356;45.638;13.764;2023-03-05T00:41:33;19.20;41.60
75738;DHT22;64356;45.638;13.764;2023-03-05T00:43:59;19.20;41.70
75738;DHT22;64356;45.638;13.764;2023-03-05T00:46:24;19.20;41.60
75738;DHT22;64356;45.638;13.764;2023-03-05T00:48:52;19.20;41.60
75738;DHT22;64356;45.638;13.764;2023-03-05T00:51:18;19.10;41.60
75738;DHT22;64356;45.638;13.764;2023-03-05T00:53:44;19.10;41.60
75738;DHT22;64356;45.638;13.764;2023-03-05T00:56:10;19.10;41.80
75738;DHT22;64356;45.638;13.764;2023-03-05T00:58:36;19.20;41.90
75738;DHT22;64356;45.638;13.764;2023-03-05T01:01:03;19.10;41.80
75738;DHT22;64356;45.638;13.764;2023-03-05T01:03:30;19.10;41.60
75738;DHT22;64356;45.638;13.764;2023-03-05T01:05:56;19.10;41.60
75738;DHT22;64356;45.638;13.764;2023-03-05T01:08:22;19.10;41.60
75738;DHT22;64356;45.638;13.764;2023-03-05T01:10:48;19.10;41.70
75738;DHT22;64356;45.638;13.764;2023-03-05T01:13:14;19.10;41.70
75738;DHT22;64356;45.638;13.764;2023-03-05T01:15:39;19.10;41.80
75738;DHT22;64356;45.638;13.764;2023-03-05T01:18:05;19.10;41.80
75738;DHT22;64356;45.638;13.764;2023-03-05T01:20:31;19.10;41.70
75738;DHT22;64356;45.638;13.764;2023-03-05T01:22:57;19.10;41.80
75738;DHT22;64356;45.638;13.764;2023-03-05T01:25:23;19.10;41.80
75738;DHT22;64356;45.638;13.764;2023-03-05T01:27:49;19.10;41.80
75738;DHT22;64356;45.638;13.764;2023-03-05T01:30:15;19.10;41.90
75738;DHT22;64356;45.638;13.764;2023-03-05T01:32:41;19.10;41.80
75738;DHT22;64356;45.638;13.764;2023-03-05T01:35:09;19.10;41.80
75738;DHT22;64356;45.638;13.764;2023-03-05T01:37:35;19.10;41.90
75738;DHT22;64356;45.638;13.764;2023-03-05T01:40:01;19.10;41.90
75738;DHT22;64356;45.638;13.764;2023-03-05T01:42:26;19.10;41.70
75738;DHT22;64356;45.638;13.764;2023-03-05T01:45:15;19.10;41.70
75738;DHT22;64356;45.638;13.764;2023-03-05T01:47:41;19.10;41.70
75738;DHT22;64356;45.638;13.764;2023-03-05T01:50:10;19.10;41.80
75738;DHT22;64356;45.638;13.764;2023-03-05T01:52:40;19.10;41.80
75738;DHT22;64356;45.638;13.764;2023-03-05T01:55:12;19.00;41.80
75738;DHT22;64356;45.638;13.764;2023-03-05T01:57:42;19.00;41.70
75738;DHT22;64356;45.638;13.764;2023-03-05T02:00:18;19.10;41.80
75738;DHT22;64356;45.638;13.764;2023-03-05T02:02:47;19.10;41.90
75738;DHT22;64356;45.638;13.764;2023-03-05T02:05:28;19.00;41.90
75738;DHT22;64356;45.638;13.764;2023-03-05T02:08:07;19.00;41.90
75738;DHT22;64356;45.638;13.764;2023-03-05T02:10:36;19.00;41.90
75738;DHT22;64356;45.638;13.764;2023-03-05T02:13:11;19.00;42.00
75738;DHT22;64356;45.638;13.764;2023-03-05T02:15:38;19.00;42.00
75738;DHT22;64356;45.638;13.764;2023-03-05T02:18:05;19.00;42.00
75738;DHT22;64356;45.638;13.764;2023-03-05T02:20:56;19.00;41.90
75738;DHT22;64356;45.638;13.764;2023-03-05T02:23:33;19.00;42.00
75738;DHT22;64356;45.638;13.764;2023-03-05T02:26:02;19.00;42.00
75738;DHT22;64356;45.638;13.764;2023-03-05T02:31:18;19.00;42.00
75738;DHT22;64356;45.638;13.764;2023-03-05T02:33:44;19.00;41.90
75738;DHT22;64356;45.638;13.764;2023-03-05T02:36:10;19.00;41.90
75738;DHT22;64356;45.638;13.764;2023-03-05T02:38:37;19.00;41.90
75738;DHT22;64356;45.638;13.764;2023-03-05T02:41:03;19.00;41.90
75738;DHT22;64356;45.638;13.764;2023-03-05T02:43:28;19.00;41.90
75738;DHT22;64356;45.638;13.764;2023-03-05T02:45:54;19.00;41.90
75738;DHT22;64356;45.638;13.764;2023-03-05T02:48:20;19.00;41.90
75738;DHT22;64356;45.638;13.764;2023-03-05T02:50:46;19.00;41.80
75738;DHT22;64356;45.638;13.764;2023-03-05T02:53:12;19.00;41.80
75738;DHT22;64356;45.638;13.764;2023-03-05T02:55:38;19.00;41.80
75738;DHT22;64356;45.638;13.764;2023-03-05T02:58:04;19.00;41.80
75738;DHT22;64356;45.638;13.764;2023-03-05T03:00:29;19.00;41.80
75738;DHT22;64356;45.638;13.764;2023-03-05T03:02:55;19.00;41.90
75738;DHT22;64356;45.638;13.764;2023-03-05T03:05:21;19.00;41.80
75738;DHT22;64356;45.638;13.764;2023-03-05T03:07:47;19.00;41.80
75738;DHT22;64356;45.638;13.764;2023-03-05T03:10:13;19.00;41.80
75738;DHT22;64356;45.638;13.764;2023-03-05T03:12:40;19.00;41.70
75738;DHT22;64356;45.638;13.764;2023-03-05T03:15:07;19.00;41.70
75738;DHT22;64356;45.638;13.764;2023-03-05T03:17:34;19.00;41.70
75738;DHT22;64356;45.638;13.764;2023-03-05T03:20:01;19.00;41.60
75738;DHT22;64356;45.638;13.764;2023-03-05T03:22:28;19.00;41.60
75738;DHT22;64356;45.638;13.764;2023-03-05T03:24:53;19.00;41.60
75738;DHT22;64356;45.638;13.764;2023-03-05T03:27:20;19.00;41.60
75738;DHT22;64356;45.638;13.764;2023-03-05T03:29:46;19.00;41.50
75738;DHT22;64356;45.638;13.764;2023-03-05T03:32:12;19.00;41.40
75738;DHT22;64356;45.638;13.764;2023-03-05T03:34:38;19.00;41.40
75738;DHT22;64356;45.638;13.764;2023-03-05T03:37:03;18.90;41.40
75738;DHT22;64356;45.638;13.764;2023-03-05T03:39:29;18.90;41.40
75738;DHT22;64356;45.638;13.764;2023-03-05T03:41:55;18.90;41.40
75738;DHT22;64356;45.638;13.764;2023-03-05T03:44:21;18.90;41.20
75738;DHT22;64356;45.638;13.764;2023-03-05T03:46:49;18.90;41.30
75738;DHT22;64356;45.638;13.764;2023-03-05T03:49:19;18.90;41.30
75738;DHT22;64356;45.638;13.764;2023-03-05T03:51:46;18.90;41.30
75738;DHT22;64356;45.638;13.764;2023-03-05T03:54:12;18.90;41.30
75738;DHT22;64356;45.638;13.764;2023-03-05T03:56:38;18.90;41.30
75738;DHT22;64356;45.638;13.764;2023-03-05T03:59:04;18.90;41.20
75738;DHT22;64356;45.638;13.764;2023-03-05T04:01:30;18.90;41.20
75738;DHT22;64356;45.638;13.764;2023-03-05T04:03:56;18.90;41.30
75738;DHT22;64356;45.638;13.764;2023-03-05T04:06:21;18.90;41.30
75738;DHT22;64356;45.638;13.764;2023-03-05T04:08:47;18.90;41.30
75738;DHT22;64356;45.638;13.764;2023-03-05T04:11:13;18.90;41.20
75738;DHT22;64356;45.638;13.764;2023-03-05T04:13:40;18.90;41.10
75738;DHT22;64356;45.638;13.764;2023-03-05T04:16:06;18.90;41.10
75738;DHT22;64356;45.638;13.764;2023-03-05T04:18:32;18.90;41.10
75738;DHT22;64356;45.638;13.764;2023-03-05T04:20:58;18.90;41.10
75738;DHT22;64356;45.638;13.764;2023-03-05T04:23:24;18.90;41.10
75738;DHT22;64356;45.638;13.764;2023-03-05T04:25:49;18.90;41.30
75738;DHT22;64356;45.638;13.764;2023-03-05T04:28:15;18.90;41.10
75738;DHT22;64356;45.638;13.764;2023-03-05T04:30:42;18.90;41.10
75738;DHT22;64356;45.638;13.764;2023-03-05T04:33:08;18.90;41.70
75738;DHT22;64356;45.638;13.764;2023-03-05T04:35:34;18.90;41.10
75738;DHT22;64356;45.638;13.764;2023-03-05T04:37:59;18.90;41.10
75738;DHT22;64356;45.638;13.764;2023-03-05T04:40:25;18.90;41.10
75738;DHT22;64356;45.638;13.764;2023-03-05T04:42:51;18.90;41.10
75738;DHT22;64356;45.638;13.764;2023-03-05T04:45:16;18.90;41.00
75738;DHT22;64356;45.638;13.764;2023-03-05T04:47:42;18.90;41.00
75738;DHT22;64356;45.638;13.764;2023-03-05T04:50:09;18.90;41.00
75738;DHT22;64356;45.638;13.764;2023-03-05T04:52:41;18.90;40.90
75738;DHT22;64356;45.638;13.764;2023-03-05T04:55:08;18.90;40.80
75738;DHT22;64356;45.638;13.764;2023-03-05T04:57:35;18.90;40.70
75738;DHT22;64356;45.638;13.764;2023-03-05T05:00:01;18.90;40.70
75738;DHT22;64356;45.638;13.764;2023-03-05T05:02:29;18.90;40.70
75738;DHT22;64356;45.638;13.764;2023-03-05T05:04:55;18.90;40.70
75738;DHT22;64356;45.638;13.764;2023-03-05T05:07:20;18.90;40.60
75738;DHT22;64356;45.638;13.764;2023-03-05T05:09:46;18.90;40.70
75738;DHT22;64356;45.638;13.764;2023-03-05T05:12:12;18.80;40.60
75738;DHT22;64356;45.638;13.764;2023-03-05T05:14:37;18.80;40.60
75738;DHT22;64356;45.638;13.764;2023-03-05T05:17:03;18.80;40.60
75738;DHT22;64356;45.638;13.764;2023-03-05T05:19:33;18.80;40.50
75738;DHT22;64356;45.638;13.764;2023-03-05T05:21:59;18.80;40.50
75738;DHT22;64356;45.638;13.764;2023-03-05T05:24:25;18.80;40.50
75738;DHT22;64356;45.638;13.764;2023-03-05T05:26:53;18.80;40.60
75738;DHT22;64356;45.638;13.764;2023-03-05T05:29:19;18.80;40.50
75738;DHT22;64356;45.638;13.764;2023-03-05T05:31:44;18.80;40.50
75738;DHT22;64356;45.638;13.764;2023-03-05T05:34:10;18.80;40.50
75738;DHT22;64356;45.638;13.764;2023-03-05T05:36:36;18.80;40.50
75738;DHT22;64356;45.638;13.764;2023-03-05T05:39:02;18.80;40.40
75738;DHT22;64356;45.638;13.764;2023-03-05T05:41:28;18.80;40.40
75738;DHT22;64356;45.638;13.764;2023-03-05T05:43:53;18.80;40.40
75738;DHT22;64356;45.638;13.764;2023-03-05T05:46:20;18.80;40.40
75738;DHT22;64356;45.638;13.764;2023-03-05T05:48:46;18.80;40.30
75738;DHT22;64356;45.638;13.764;2023-03-05T05:51:15;18.80;40.40
75738;DHT22;64356;45.638;13.764;2023-03-05T05:53:41;18.80;40.30
75738;DHT22;64356;45.638;13.764;2023-03-05T05:56:08;18.80;40.30
75738;DHT22;64356;45.638;13.764;2023-03-05T05:58:35;18.80;40.30
75738;DHT22;64356;45.638;13.764;2023-03-05T06:01:01;18.80;40.30
75738;DHT22;64356;45.638;13.764;2023-03-05T06:03:27;18.80;40.40
75738;DHT22;64356;45.638;13.764;2023-03-05T06:05:52;18.80;40.30
75738;DHT22;64356;45.638;13.764;2023-03-05T06:08:18;18.80;40.30
75738;DHT22;64356;45.638;13.764;2023-03-05T06:10:44;18.80;40.20
75738;DHT22;64356;45.638;13.764;2023-03-05T06:13:10;18.80;40.30
75738;DHT22;64356;45.638;13.764;2023-03-05T06:15:35;18.80;40.30
75738;DHT22;64356;45.638;13.764;2023-03-05T06:18:01;18.80;40.30
75738;DHT22;64356;45.638;13.764;2023-03-05T06:20:27;18.80;40.20
75738;DHT22;64356;45.638;13.764;2023-03-05T06:22:54;18.80;40.20
75738;DHT22;64356;45.638;13.764;2023-03-05T06:25:19;18.80;40.20
75738;DHT22;64356;45.638;13.764;2023-03-05T06:27:45;18.80;40.20
75738;DHT22;64356;45.638;13.764;2023-03-05T06:30:12;18.80;40.20
75738;DHT22;64356;45.638;13.764;2023-03-05T06:32:37;18.80;40.20
75738;DHT22;64356;45.638;13.764;2023-03-05T06:35:03;18.80;40.20
75738;DHT22;64356;45.638;13.764;2023-03-05T06:37:29;18.80;40.20
75738;DHT22;64356;45.638;13.764;2023-03-05T06:39:55;18.80;40.20
75738;DHT22;64356;45.638;13.764;2023-03-05T06:42:20;18.80;40.30
75738;DHT22;64356;45.638;13.764;2023-03-05T06:44:46;18.80;40.30
75738;DHT22;64356;45.638;13.764;2023-03-05T06:47:12;18.80;40.30
75738;DHT22;64356;45.638;13.764;2023-03-05T06:49:39;18.80;40.30
75738;DHT22;64356;45.638;13.764;2023-03-05T06:52:05;18.80;40.30
75738;DHT22;64356;45.638;13.764;2023-03-05T06:54:34;18.80;40.30
75738;DHT22;64356;45.638;13.764;2023-03-05T06:57:00;18.80;40.30
75738;DHT22;64356;45.638;13.764;2023-03-05T06:59:25;18.80;40.30
75738;DHT22;64356;45.638;13.764;2023-03-05T07:01:51;18.80;40.30
75738;DHT22;64356;45.638;13.764;2023-03-05T07:04:17;18.80;40.30
75738;DHT22;64356;45.638;13.764;2023-03-05T07:06:42;18.80;40.30
75738;DHT22;64356;45.638;13.764;2023-03-05T07:09:11;18.70;40.30
75738;DHT22;64356;45.638;13.764;2023-03-05T07:11:37;18.80;40.30
75738;DHT22;64356;45.638;13.764;2023-03-05T07:14:03;18.80;40.30
75738;DHT22;64356;45.638;13.764;2023-03-05T07:16:31;18.80;40.30
75738;DHT22;64356;45.638;13.764;2023-03-05T07:18:59;18.80;40.20
75738;DHT22;64356;45.638;13.764;2023-03-05T07:21:28;18.80;40.30
75738;DHT22;64356;45.638;13.764;2023-03-05T07:23:56;18.80;40.20
75738;DHT22;64356;45.638;13.764;2023-03-05T07:26:22;18.80;40.20
75738;DHT22;64356;45.638;13.764;2023-03-05T07:28:48;18.80;40.30
75738;DHT22;64356;45.638;13.764;2023-03-05T07:31:17;18.80;40.40
75738;DHT22;64356;45.638;13.764;2023-03-05T07:33:47;18.80;40.40
75738;DHT22;64356;45.638;13.764;2023-03-05T07:36:14;18.80;40.40
75738;DHT22;64356;45.638;13.764;2023-03-05T07:38:40;18.80;40.40
75738;DHT22;64356;45.638;13.764;2023-03-05T07:41:09;18.80;40.50
75738;DHT22;64356;45.638;13.764;2023-03-05T07:43:35;18.80;40.40
75738;DHT22;64356;45.638;13.764;2023-03-05T07:46:08;18.80;40.40
75738;DHT22;64356;45.638;13.764;2023-03-05T07:48:34;18.80;40.30
75738;DHT22;64356;45.638;13.764;2023-03-05T07:51:21;18.80;40.40
75738;DHT22;64356;45.638;13.764;2023-03-05T07:53:48;18.80;40.30
75738;DHT22;64356;45.638;13.764;2023-03-05T07:56:26;18.80;40.30
75738;DHT22;64356;45.638;13.764;2023-03-05T07:58:53;18.80;40.30
75738;DHT22;64356;45.638;13.764;2023-03-05T08:01:19;18.80;40.20
75738;DHT22;64356;45.638;13.764;2023-03-05T08:03:44;18.80;40.10
75738;DHT22;64356;45.638;13.764;2023-03-05T08:06:11;18.80;40.20
75738;DHT22;64356;45.638;13.764;2023-03-05T08:08:37;18.80;40.20
75738;DHT22;64356;45.638;13.764;2023-03-05T08:11:11;18.80;40.20
75738;DHT22;64356;45.638;13.764;2023-03-05T08:13:37;18.80;40.20
75738;DHT22;64356;45.638;13.764;2023-03-05T08:16:05;18.80;40.20
75738;DHT22;64356;45.638;13.764;2023-03-05T08:18:31;18.80;40.80
75738;DHT22;64356;45.638;13.764;2023-03-05T08:20:57;18.80;40.70
75738;DHT22;64356;45.638;13.764;2023-03-05T08:23:22;18.80;40.20
75738;DHT22;64356;45.638;13.764;2023-03-05T08:25:48;18.80;40.20
75738;DHT22;64356;45.638;13.764;2023-03-05T08:28:14;18.80;40.30
75738;DHT22;64356;45.638;13.764;2023-03-05T08:30:45;18.80;40.30
75738;DHT22;64356;45.638;13.764;2023-03-05T08:33:11;18.80;40.30
75738;DHT22;64356;45.638;13.764;2023-03-05T08:35:37;18.90;40.40
75738;DHT22;64356;45.638;13.764;2023-03-05T08:38:03;18.90;40.30
75738;DHT22;64356;45.638;13.764;2023-03-05T08:40:29;18.90;40.30
75738;DHT22;64356;45.638;13.764;2023-03-05T08:42:56;18.90;40.30
75738;DHT22;64356;45.638;13.764;2023-03-05T08:45:22;18.90;40.30
75738;DHT22;64356;45.638;13.764;2023-03-05T08:47:48;18.90;40.30
75738;DHT22;64356;45.638;13.764;2023-03-05T08:50:14;18.90;40.30
75738;DHT22;64356;45.638;13.764;2023-03-05T08:52:40;18.90;40.30
75738;DHT22;64356;45.638;13.764;2023-03-05T08:55:06;18.90;40.30
75738;DHT22;64356;45.638;13.764;2023-03-05T08:57:32;18.90;40.30
75738;DHT22;64356;45.638;13.764;2023-03-05T08:59:57;18.90;40.20
75738;DHT22;64356;45.638;13.764;2023-03-05T09:02:23;18.90;40.30
75738;DHT22;64356;45.638;13.764;2023-03-05T09:04:49;19.00;40.30
75738;DHT22;64356;45.638;13.764;2023-03-05T09:07:14;19.00;40.20
75738;DHT22;64356;45.638;13.764;2023-03-05T09:09:40;19.00;40.20
75738;DHT22;64356;45.638;13.764;2023-03-05T09:12:06;19.00;40.70
75738;DHT22;64356;45.638;13.764;2023-03-05T09:14:32;19.00;40.20
75738;DHT22;64356;45.638;13.764;2023-03-05T09:16:57;19.00;40.10
75738;DHT22;64356;45.638;13.764;2023-03-05T09:19:24;19.00;40.00
75738;DHT22;64356;45.638;13.764;2023-03-05T09:21:50;19.00;40.00
75738;DHT22;64356;45.638;13.764;2023-03-05T09:24:16;19.00;39.90
75738;DHT22;64356;45.638;13.764;2023-03-05T09:26:41;19.00;39.80
75738;DHT22;64356;45.638;13.764;2023-03-05T09:29:07;19.00;39.80
75738;DHT22;64356;45.638;13.764;2023-03-05T09:31:37;19.00;39.80
75738;DHT22;64356;45.638;13.764;2023-03-05T09:34:03;19.00;39.70
75738;DHT22;64356;45.638;13.764;2023-03-05T09:36:30;19.10;39.70
75738;DHT22;64356;45.638;13.764;2023-03-05T09:38:56;19.10;39.70
75738;DHT22;64356;45.638;13.764;2023-03-05T09:50:58;19.10;39.60
75738;DHT22;64356;45.638;13.764;2023-03-05T09:53:22;19.20;39.70
75738;DHT22;64356;45.638;13.764;2023-03-05T09:58:40;19.20;39.70
75738;DHT22;64356;45.638;13.764;2023-03-05T10:01:21;19.20;39.60
75738;DHT22;64356;45.638;13.764;2023-03-05T10:09:43;19.20;39.50
75738;DHT22;64356;45.638;13.764;2023-03-05T10:12:22;19.30;39.60
75738;DHT22;64356;45.638;13.764;2023-03-05T10:14:52;19.20;39.50
75738;DHT22;64356;45.638;13.764;2023-03-05T10:17:25;19.20;39.60
75738;DHT22;64356;45.638;13.764;2023-03-05T10:36:53;19.30;39.50
75738;DHT22;64356;45.638;13.764;2023-03-05T10:42:46;19.30;39.40
75738;DHT22;64356;45.638;13.764;2023-03-05T10:45:25;19.30;39.70
75738;DHT22;64356;45.638;13.764;2023-03-05T10:50:52;19.40;39.20
75738;DHT22;64356;45.638;13.764;2023-03-05T10:55:55;19.50;39.00
75738;DHT22;64356;45.638;13.764;2023-03-05T10:58:26;19.50;39.00
75738;DHT22;64356;45.638;13.764;2023-03-05T11:08:55;19.60;39.40
75738;DHT22;64356;45.638;13.764;2023-03-05T11:11:22;19.70;39.70
75738;DHT22;64356;45.638;13.764;2023-03-05T11:13:59;19.70;39.70
75738;DHT22;64356;45.638;13.764;2023-03-05T11:16:34;19.70;39.60
75738;DHT22;64356;45.638;13.764;2023-03-05T11:19:24;19.70;39.40
75738;DHT22;64356;45.638;13.764;2023-03-05T11:22:16;19.80;39.40
75738;DHT22;64356;45.638;13.764;2023-03-05T11:24:43;19.80;39.70
75738;DHT22;64356;45.638;13.764;2023-03-05T11:27:37;19.80;39.80
75738;DHT22;64356;45.638;13.764;2023-03-05T11:30:17;19.90;39.90
75738;DHT22;64356;45.638;13.764;2023-03-05T11:32:43;19.90;39.90
75738;DHT22;64356;45.638;13.764;2023-03-05T11:35:31;20.00;40.00
75738;DHT22;64356;45.638;13.764;2023-03-05T11:38:02;20.10;40.00
75738;DHT22;64356;45.638;13.764;2023-03-05T11:40:37;20.10;39.90
75738;DHT22;64356;45.638;13.764;2023-03-05T11:43:03;20.20;39.90
75738;DHT22;64356;45.638;13.764;2023-03-05T11:45:31;20.30;40.00
75738;DHT22;64356;45.638;13.764;2023-03-05T11:50:51;20.30;40.00
75738;DHT22;64356;45.638;13.764;2023-03-05T12:01:19;20.40;40.20
75738;DHT22;64356;45.638;13.764;2023-03-05T12:03:45;20.50;40.10
75738;DHT22;64356;45.638;13.764;2023-03-05T12:08:53;20.60;40.00
75738;DHT22;64356;45.638;13.764;2023-03-05T12:11:26;20.70;39.90
75738;DHT22;64356;45.638;13.764;2023-03-05T12:13:58;20.70;39.80
75738;DHT22;64356;45.638;13.764;2023-03-05T12:16:39;20.80;39.80
75738;DHT22;64356;45.638;13.764;2023-03-05T12:21:58;20.90;39.50
75738;DHT22;64356;45.638;13.764;2023-03-05T12:29:37;21.00;39.30
75738;DHT22;64356;45.638;13.764;2023-03-05T12:32:31;21.10;39.30
75738;DHT22;64356;45.638;13.764;2023-03-05T12:35:03;21.10;39.20
75738;DHT22;64356;45.638;13.764;2023-03-05T12:47:37;21.20;39.50
75738;DHT22;64356;45.638;13.764;2023-03-05T12:50:04;21.20;38.90
75738;DHT22;64356;45.638;13.764;2023-03-05T12:52:32;21.30;38.90
75738;DHT22;64356;45.638;13.764;2023-03-05T12:57:44;21.30;38.60
75738;DHT22;64356;45.638;13.764;2023-03-05T13:00:15;21.30;38.60
75738;DHT22;64356;45.638;13.764;2023-03-05T13:02:49;21.40;38.60
75738;DHT22;64356;45.638;13.764;2023-03-05T13:05:37;21.40;38.60
75738;DHT22;64356;45.638;13.764;2023-03-05T13:08:26;21.40;38.50
75738;DHT22;64356;45.638;13.764;2023-03-05T13:11:08;21.50;38.40
75738;DHT22;64356;45.638;13.764;2023-03-05T13:13:42;21.40;38.40
75738;DHT22;64356;45.638;13.764;2023-03-05T13:16:26;21.50;38.20
75738;DHT22;64356;45.638;13.764;2023-03-05T13:18:55;21.50;38.20
75738;DHT22;64356;45.638;13.764;2023-03-05T13:21:26;21.50;38.20
75738;DHT22;64356;45.638;13.764;2023-03-05T13:23:55;21.50;38.20
75738;DHT22;64356;45.638;13.764;2023-03-05T13:26:28;21.50;38.10
75738;DHT22;64356;45.638;13.764;2023-03-05T13:29:20;21.50;38.00
75738;DHT22;64356;45.638;13.764;2023-03-05T13:31:53;21.60;37.90
75738;DHT22;64356;45.638;13.764;2023-03-05T13:34:34;21.50;37.80
75738;DHT22;64356;45.638;13.764;2023-03-05T13:37:14;21.60;37.90
75738;DHT22;64356;45.638;13.764;2023-03-05T13:39:48;21.50;37.80
75738;DHT22;64356;45.638;13.764;2023-03-05T13:42:15;21.50;37.80
75738;DHT22;64356;45.638;13.764;2023-03-05T13:44:42;21.60;37.80
75738;DHT22;64356;45.638;13.764;2023-03-05T13:47:16;21.60;37.90
75738;DHT22;64356;45.638;13.764;2023-03-05T13:49:43;21.60;37.70
75738;DHT22;64356;45.638;13.764;2023-03-05T13:52:08;21.60;37.70
75738;DHT22;64356;45.638;13.764;2023-03-05T13:54:35;21.60;37.70
75738;DHT22;64356;45.638;13.764;2023-03-05T13:57:06;21.60;37.60
75738;DHT22;64356;45.638;13.764;2023-03-05T13:59:34;21.60;37.70
75738;DHT22;64356;45.638;13.764;2023-03-05T14:02:10;21.60;37.60
75738;DHT22;64356;45.638;13.764;2023-03-05T14:04:42;21.50;37.50
75738;DHT22;64356;45.638;13.764;2023-03-05T14:09:50;21.60;37.60
75738;DHT22;64356;45.638;13.764;2023-03-05T14:12:38;21.60;37.50
75738;DHT22;64356;45.638;13.764;2023-03-05T14:15:25;21.60;37.60
75738;DHT22;64356;45.638;13.764;2023-03-05T14:17:52;21.60;37.50
75738;DHT22;64356;45.638;13.764;2023-03-05T14:20:31;21.60;37.40
75738;DHT22;64356;45.638;13.764;2023-03-05T14:22:59;21.60;37.50
75738;DHT22;64356;45.638;13.764;2023-03-05T14:25:36;21.60;37.50
75738;DHT22;64356;45.638;13.764;2023-03-05T14:28:25;21.60;37.50
75738;DHT22;64356;45.638;13.764;2023-03-05T14:30:53;21.60;37.50
75738;DHT22;64356;45.638;13.764;2023-03-05T14:33:29;21.60;37.60
75738;DHT22;64356;45.638;13.764;2023-03-05T14:35:56;21.60;37.60
75738;DHT22;64356;45.638;13.764;2023-03-05T14:38:27;21.60;37.60
75738;DHT22;64356;45.638;13.764;2023-03-05T14:40:54;21.60;37.70
75738;DHT22;64356;45.638;13.764;2023-03-05T14:43:21;21.60;37.80
75738;DHT22;64356;45.638;13.764;2023-03-05T14:45:46;21.60;37.70
75738;DHT22;64356;45.638;13.764;2023-03-05T14:48:14;21.60;37.70
75738;DHT22;64356;45.638;13.764;2023-03-05T14:50:46;21.60;37.60
75738;DHT22;64356;45.638;13.764;2023-03-05T14:53:18;21.60;37.60
75738;DHT22;64356;45.638;13.764;2023-03-05T14:55:46;21.60;37.60
75738;DHT22;64356;45.638;13.764;2023-03-05T14:58:19;21.60;37.60
75738;DHT22;64356;45.638;13.764;2023-03-05T15:00:46;21.60;37.50
75738;DHT22;64356;45.638;13.764;2023-03-05T15:03:14;21.60;37.30
75738;DHT22;64356;45.638;13.764;2023-03-05T15:05:41;21.60;37.40
75738;DHT22;64356;45.638;13.764;2023-03-05T15:08:29;21.60;37.40
75738;DHT22;64356;45.638;13.764;2023-03-05T15:10:56;21.50;37.30
75738;DHT22;64356;45.638;13.764;2023-03-05T15:13:22;21.50;37.40
75738;DHT22;64356;45.638;13.764;2023-03-05T15:15:49;21.50;37.40
75738;DHT22;64356;45.638;13.764;2023-03-05T15:18:18;21.50;37.40
75738;DHT22;64356;45.638;13.764;2023-03-05T15:20:45;21.40;37.50
75738;DHT22;64356;45.638;13.764;2023-03-05T15:23:11;21.40;37.50
75738;DHT22;64356;45.638;13.764;2023-03-05T15:25:37;21.40;37.50
75738;DHT22;64356;45.638;13.764;2023-03-05T15:28:03;21.40;37.70
75738;DHT22;64356;45.638;13.764;2023-03-05T15:30:34;21.40;37.70
75738;DHT22;64356;45.638;13.764;2023-03-05T15:33:06;21.30;37.80
75738;DHT22;64356;45.638;13.764;2023-03-05T15:35:32;21.40;37.80
75738;DHT22;64356;45.638;13.764;2023-03-05T15:37:57;21.30;37.80
75738;DHT22;64356;45.638;13.764;2023-03-05T15:40:25;21.30;38.00
75738;DHT22;64356;45.638;13.764;2023-03-05T15:42:52;21.20;38.00
75738;DHT22;64356;45.638;13.764;2023-03-05T15:45:18;21.20;38.60
75738;DHT22;64356;45.638;13.764;2023-03-05T15:47:46;21.20;38.10
75738;DHT22;64356;45.638;13.764;2023-03-05T15:50:12;21.20;38.20
75738;DHT22;64356;45.638;13.764;2023-03-05T15:52:38;21.10;38.20
75738;DHT22;64356;45.638;13.764;2023-03-05T15:55:04;21.10;38.30
75738;DHT22;64356;45.638;13.764;2023-03-05T15:57:36;21.00;38.30
75738;DHT22;64356;45.638;13.764;2023-03-05T16:00:05;20.90;38.50
75738;DHT22;64356;45.638;13.764;2023-03-05T16:02:32;20.90;38.60
75738;DHT22;64356;45.638;13.764;2023-03-05T16:04:57;20.90;38.80
75738;DHT22;64356;45.638;13.764;2023-03-05T16:07:23;20.90;38.90
75738;DHT22;64356;45.638;13.764;2023-03-05T16:09:50;20.80;38.90
75738;DHT22;64356;45.638;13.764;2023-03-05T16:12:19;20.70;39.10
75738;DHT22;64356;45.638;13.764;2023-03-05T16:14:46;20.60;39.30
75738;DHT22;64356;45.638;13.764;2023-03-05T16:17:13;20.60;39.40
75738;DHT22;64356;45.638;13.764;2023-03-05T16:19:43;20.50;39.50
75738;DHT22;64356;45.638;13.764;2023-03-05T16:22:11;20.50;39.60
75738;DHT22;64356;45.638;13.764;2023-03-05T16:24:36;20.40;39.70
75738;DHT22;64356;45.638;13.764;2023-03-05T16:27:02;20.40;39.80
75738;DHT22;64356;45.638;13.764;2023-03-05T16:29:29;20.30;39.90
75738;DHT22;64356;45.638;13.764;2023-03-05T16:31:57;20.30;40.00
75738;DHT22;64356;45.638;13.764;2023-03-05T16:34:23;20.20;40.10
75738;DHT22;64356;45.638;13.764;2023-03-05T16:36:51;20.20;40.20
75738;DHT22;64356;45.638;13.764;2023-03-05T16:39:18;20.20;40.30
75738;DHT22;64356;45.638;13.764;2023-03-05T16:41:44;20.20;40.40
75738;DHT22;64356;45.638;13.764;2023-03-05T16:44:10;20.10;40.50
75738;DHT22;64356;45.638;13.764;2023-03-05T16:46:37;20.10;40.70
75738;DHT22;64356;45.638;13.764;2023-03-05T16:49:03;20.10;40.80
75738;DHT22;64356;45.638;13.764;2023-03-05T16:51:30;20.00;40.80
75738;DHT22;64356;45.638;13.764;2023-03-05T16:53:56;20.00;41.00